Time;durP1;ratioP1;P1;durP2;ratioP2;P2;SDS_P1;SDS_P2;PMS_P1;PMS_P2;Temp;Humidity;BMP_temperature;BMP_pressure;BME280_temperature;BME280_humidity;BME280_pressure;Samples;Min_cycle;Max_cycle;Signal;HPM_P1;HPM_P2
2023/03/24 00:02:03;;;;;;;7.07;4.05;;;;;;;;;;5016140;28;20061;-51
2023/03/24 00:04:30;;;;;;;6.38;4.15;;;;;;;;;;5015859;28;20114;-51
2023/03/24 00:06:57;;;;;;;8.10;4.53;;;;;;;;;;5015840;28;20058;-51
2023/03/24 00:09:25;;;;;;;6.47;4.13;;;;;;;;;;5015646;28;20415;-54
2023/03/24 00:11:52;;;;;;;6.53;4.47;;;;;;;;;;5015647;28;20384;-52
2023/03/24 00:14:19;;;;;;;6.28;4.65;;;;;;;;;;5015879;28;20049;-50
2023/03/24 00:16:46;;;;;;;6.72;4.32;;;;;;;;;;5015607;28;20057;-53
2023/03/24 00:19:13;;;;;;;8.10;4.20;;;;;;;;;;5015647;28;20097;-54
2023/03/24 00:21:41;;;;;;;8.57;4.30;;;;;;;;;;5015745;28;20085;-54
2023/03/24 00:24:10;;;;;;;7.15;4.20;;;;;;;;;;5015609;28;20050;-52
2023/03/24 00:26:40;;;;;;;7.10;4.07;;;;;;;;;;5015323;28;20081;-53
2023/03/24 00:29:09;;;;;;;7.72;4.28;;;;;;;;;;5015385;28;20399;-52
2023/03/24 00:31:38;;;;;;;6.65;4.38;;;;;;;;;;5015525;28;20060;-54
2023/03/24 00:34:07;;;;;;;7.65;4.20;;;;;;;;;;5015305;28;20142;-51
2023/03/24 00:36:34;;;;;;;7.25;4.30;;;;;;;;;;5014947;28;20045;-54
2023/03/24 00:39:02;;;;;;;7.75;4.20;;;;;;;;;;5015208;28;20046;-56
2023/03/24 00:41:29;;;;;;;9.15;4.50;;;;;;;;;;5014259;28;20064;-57
2023/03/24 00:43:59;;;;;;;7.38;4.20;;;;;;;;;;5015460;28;20113;-56
2023/03/24 00:46:29;;;;;;;7.37;5.00;;;;;;;;;;5015418;28;20042;-52
2023/03/24 00:49:02;;;;;;;6.05;4.15;;;;;;;;;;5015411;28;20352;-51
2023/03/24 00:51:31;;;;;;;7.28;4.65;;;;;;;;;;5015418;28;20352;-53
2023/03/24 00:53:58;;;;;;;7.85;4.50;;;;;;;;;;5015141;28;20046;-53
2023/03/24 00:56:26;;;;;;;8.07;4.55;;;;;;;;;;5015160;28;20064;-56
2023/03/24 00:58:56;;;;;;;7.22;4.72;;;;;;;;;;5014805;28;20046;-53
2023/03/24 01:01:26;;;;;;;7.32;4.45;;;;;;;;;;5015083;28;20070;-56
2023/03/24 01:03:53;;;;;;;8.40;4.70;;;;;;;;;;5013747;28;20054;-56
2023/03/24 01:06:22;;;;;;;7.97;4.90;;;;;;;;;;5011113;28;20049;-55
2023/03/24 01:08:52;;;;;;;7.53;4.40;;;;;;;;;;5011482;28;20115;-56
2023/03/24 01:11:20;;;;;;;7.30;4.65;;;;;;;;;;5011352;28;20046;-52
2023/03/24 01:13:47;;;;;;;8.70;4.53;;;;;;;;;;5011249;28;20054;-55
2023/03/24 01:16:14;;;;;;;6.07;4.15;;;;;;;;;;5010664;28;20054;-55
2023/03/24 01:18:45;;;;;;;7.88;4.40;;;;;;;;;;5010858;28;20038;-52
2023/03/24 01:21:13;;;;;;;7.47;4.93;;;;;;;;;;5010888;28;20060;-56
2023/03/24 01:23:41;;;;;;;7.25;4.65;;;;;;;;;;5010957;28;20088;-55
2023/03/24 01:26:10;;;;;;;7.63;4.50;;;;;;;;;;5010615;28;20427;-57
2023/03/24 01:28:42;;;;;;;8.15;4.60;;;;;;;;;;5011178;28;20068;-54
2023/03/24 01:31:09;;;;;;;7.30;4.90;;;;;;;;;;5010270;28;20163;-52
2023/03/24 01:33:37;;;;;;;7.55;4.43;;;;;;;;;;5010834;28;20057;-56
2023/03/24 01:36:07;;;;;;;8.85;4.65;;;;;;;;;;5011115;28;20057;-56
2023/03/24 01:38:34;;;;;;;8.50;4.20;;;;;;;;;;5010692;28;20053;-55
2023/03/24 01:41:01;;;;;;;7.63;4.72;;;;;;;;;;5010479;28;20096;-52
2023/03/24 01:43:31;;;;;;;9.27;4.90;;;;;;;;;;5010683;28;20041;-52
2023/03/24 01:46:06;;;;;;;7.38;4.57;;;;;;;;;;5010214;28;20053;-55
2023/03/24 01:48:38;;;;;;;7.00;4.40;;;;;;;;;;5009992;28;20510;-52
2023/03/24 01:51:12;;;;;;;9.48;5.13;;;;;;;;;;5009807;28;20042;-53
2023/03/24 01:53:42;;;;;;;7.93;5.07;;;;;;;;;;5009001;28;20431;-56
2023/03/24 01:56:11;;;;;;;7.55;4.50;;;;;;;;;;5011938;28;20082;-53
2023/03/24 01:58:40;;;;;;;8.23;4.90;;;;;;;;;;5013497;28;20049;-53
2023/03/24 02:01:08;;;;;;;7.72;4.45;;;;;;;;;;5014071;28;20465;-54
2023/03/24 02:03:38;;;;;;;7.38;4.78;;;;;;;;;;5013214;28;20037;-55
2023/03/24 02:06:08;;;;;;;7.57;4.28;;;;;;;;;;5013858;28;20050;-56
2023/03/24 02:08:41;;;;;;;8.23;5.00;;;;;;;;;;5013583;28;20053;-55
2023/03/24 02:11:08;;;;;;;7.32;4.85;;;;;;;;;;5013538;28;20057;-54
2023/03/24 02:13:35;;;;;;;8.23;5.05;;;;;;;;;;5013093;28;20052;-52
2023/03/24 02:16:15;;;;;;;8.20;4.57;;;;;;;;;;5013405;28;20522;-54
2023/03/24 02:18:51;;;;;;;8.52;4.75;;;;;;;;;;5013212;28;20073;-55
2023/03/24 02:21:47;;;;;;;7.47;4.60;;;;;;;;;;5013631;28;20412;-57
2023/03/24 02:24:55;;;;;;;8.13;4.35;;;;;;;;;;5005496;28;20411;-52
2023/03/24 02:27:42;;;;;;;7.18;4.25;;;;;;;;;;5013031;28;20042;-54
2023/03/24 02:30:30;;;;;;;7.88;4.38;;;;;;;;;;5013058;28;20082;-53
2023/03/24 02:33:38;;;;;;;7.90;4.72;;;;;;;;;;5012798;28;20065;-53
2023/03/24 02:36:32;;;;;;;7.07;4.78;;;;;;;;;;5013243;28;20328;-53
2023/03/24 02:39:41;;;;;;;7.43;4.28;;;;;;;;;;5013226;28;20352;-57
2023/03/24 02:42:20;;;;;;;7.90;4.15;;;;;;;;;;5012675;28;20625;-56
2023/03/24 02:44:57;;;;;;;7.22;4.95;;;;;;;;;;5013448;28;20482;-54
2023/03/24 02:47:29;;;;;;;6.95;4.28;;;;;;;;;;5013176;28;20042;-56
2023/03/24 02:50:04;;;;;;;7.05;4.35;;;;;;;;;;5012851;28;20050;-53
2023/03/24 02:52:38;;;;;;;7.45;4.20;;;;;;;;;;5012646;28;20388;-56
2023/03/24 02:55:11;;;;;;;6.63;3.92;;;;;;;;;;5012959;28;20499;-56
2023/03/24 02:57:44;;;;;;;7.43;4.30;;;;;;;;;;5012583;28;20046;-56
2023/03/24 03:00:17;;;;;;;8.52;4.75;;;;;;;;;;5012915;28;20050;-57
2023/03/24 03:02:48;;;;;;;6.20;4.07;;;;;;;;;;5012459;28;20092;-56
2023/03/24 03:05:19;;;;;;;6.90;4.20;;;;;;;;;;5006069;28;20057;-55
2023/03/24 03:07:47;;;;;;;7.43;4.45;;;;;;;;;;5012754;28;20499;-54
2023/03/24 03:10:21;;;;;;;6.32;3.95;;;;;;;;;;5012489;28;20056;-57
2023/03/24 03:12:53;;;;;;;6.68;4.43;;;;;;;;;;5012592;28;20060;-56
2023/03/24 03:15:24;;;;;;;6.65;4.40;;;;;;;;;;5012321;28;20046;-52
2023/03/24 03:17:57;;;;;;;6.78;3.92;;;;;;;;;;5012814;28;20046;-52
2023/03/24 03:20:29;;;;;;;6.93;4.22;;;;;;;;;;5012307;28;20050;-58
2023/03/24 03:23:02;;;;;;;7.60;4.57;;;;;;;;;;5012719;28;20057;-55
2023/03/24 03:25:35;;;;;;;7.18;3.97;;;;;;;;;;5011917;28;20077;-57
2023/03/24 03:28:04;;;;;;;7.00;4.40;;;;;;;;;;5011936;28;20108;-55
2023/03/24 03:30:37;;;;;;;7.63;4.15;;;;;;;;;;5012091;28;20423;-56
2023/03/24 03:33:08;;;;;;;7.03;4.10;;;;;;;;;;5012407;28;20549;-53
2023/03/24 03:35:40;;;;;;;7.55;4.55;;;;;;;;;;5012028;28;20450;-56
2023/03/24 03:38:14;;;;;;;6.43;4.30;;;;;;;;;;5012087;28;20052;-55
2023/03/24 03:40:51;;;;;;;8.00;4.40;;;;;;;;;;5012200;28;20132;-57
2023/03/24 03:43:18;;;;;;;7.18;4.47;;;;;;;;;;5012218;28;20056;-54
2023/03/24 03:45:45;;;;;;;10.10;4.43;;;;;;;;;;5012003;28;20050;-57
2023/03/24 03:48:12;;;;;;;8.63;5.03;;;;;;;;;;5012099;28;20053;-57
2023/03/24 03:50:39;;;;;;;9.88;4.32;;;;;;;;;;5012013;28;20053;-58
2023/03/24 03:53:07;;;;;;;8.20;5.70;;;;;;;;;;5012171;28;20486;-56
2023/03/24 03:55:35;;;;;;;7.55;4.38;;;;;;;;;;5011928;28;20480;-55
2023/03/24 03:58:04;;;;;;;7.05;4.43;;;;;;;;;;5011626;28;20046;-54
2023/03/24 04:00:32;;;;;;;6.97;4.27;;;;;;;;;;5011829;28;20042;-55
2023/03/24 04:03:27;;;;;;;7.40;4.10;;;;;;;;;;5011845;28;20058;-56
2023/03/24 04:06:00;;;;;;;6.85;4.07;;;;;;;;;;5011876;28;20050;-57
2023/03/24 04:08:40;;;;;;;7.88;4.72;;;;;;;;;;5011842;28;20427;-55
2023/03/24 04:11:39;;;;;;;8.90;4.90;;;;;;;;;;5012011;28;20050;-52
2023/03/24 04:14:23;;;;;;;6.68;4.50;;;;;;;;;;5012109;28;20046;-53
2023/03/24 04:16:59;;;;;;;7.43;5.13;;;;;;;;;;5011528;28;20045;-55
2023/03/24 04:19:40;;;;;;;7.22;4.80;;;;;;;;;;5011676;28;20050;-54
2023/03/24 04:22:23;;;;;;;8.45;4.90;;;;;;;;;;5012201;28;20052;-55
2023/03/24 04:24:54;;;;;;;8.15;5.18;;;;;;;;;;5011920;28;20093;-53
2023/03/24 04:27:27;;;;;;;9.13;5.18;;;;;;;;;;5011514;28;20131;-53
2023/03/24 04:30:05;;;;;;;6.20;4.63;;;;;;;;;;5011790;28;20058;-54
2023/03/24 04:32:41;;;;;;;7.00;4.50;;;;;;;;;;5011841;28;20088;-52
2023/03/24 04:35:13;;;;;;;8.60;4.72;;;;;;;;;;5011772;28;20050;-56
2023/03/24 04:37:41;;;;;;;8.27;4.82;;;;;;;;;;5011377;28;20049;-54
2023/03/24 04:40:13;;;;;;;7.40;5.22;;;;;;;;;;5012629;28;20069;-52
2023/03/24 04:42:45;;;;;;;8.40;5.88;;;;;;;;;;5015411;28;20502;-57
2023/03/24 04:45:14;;;;;;;7.05;4.78;;;;;;;;;;5015940;28;20418;-54
2023/03/24 04:47:45;;;;;;;6.70;4.70;;;;;;;;;;5014620;28;20108;-56
2023/03/24 04:50:13;;;;;;;8.25;5.60;;;;;;;;;;5015519;28;20478;-54
2023/03/24 04:52:42;;;;;;;8.18;5.32;;;;;;;;;;5015066;28;20057;-54
2023/03/24 04:55:31;;;;;;;7.70;5.28;;;;;;;;;;5015025;28;20517;-53
2023/03/24 04:57:57;;;;;;;10.38;5.38;;;;;;;;;;5014933;28;20447;-58
2023/03/24 05:00:26;;;;;;;9.15;5.20;;;;;;;;;;5014776;28;20042;-53
2023/03/24 05:02:53;;;;;;;8.23;5.18;;;;;;;;;;5014720;28;20052;-53
2023/03/24 05:05:20;;;;;;;10.10;5.18;;;;;;;;;;5014969;28;20487;-57
2023/03/24 05:07:48;;;;;;;8.52;5.13;;;;;;;;;;5014675;28;20164;-52
2023/03/24 05:10:17;;;;;;;8.25;5.20;;;;;;;;;;5014420;28;20562;-55
2023/03/24 05:12:44;;;;;;;9.23;5.15;;;;;;;;;;5014520;28;20046;-53
2023/03/24 05:15:11;;;;;;;9.00;5.35;;;;;;;;;;5014669;28;20046;-53
2023/03/24 05:17:40;;;;;;;9.43;5.03;;;;;;;;;;5014803;28;20050;-53
2023/03/24 05:20:09;;;;;;;9.82;6.30;;;;;;;;;;5014011;28;20057;-56
2023/03/24 05:22:36;;;;;;;10.68;6.30;;;;;;;;;;5014893;28;20085;-56
2023/03/24 05:25:03;;;;;;;8.60;6.05;;;;;;;;;;5014692;28;20054;-55
2023/03/24 05:27:30;;;;;;;13.18;7.57;;;;;;;;;;5014991;28;20507;-53
2023/03/24 05:29:57;;;;;;;14.13;8.40;;;;;;;;;;5014918;28;20049;-55
2023/03/24 05:32:24;;;;;;;13.93;8.23;;;;;;;;;;5014520;28;20050;-55
2023/03/24 05:34:52;;;;;;;13.73;8.30;;;;;;;;;;5014271;28;20042;-53
2023/03/24 05:37:19;;;;;;;9.70;6.13;;;;;;;;;;5014553;28;20431;-55
2023/03/24 05:39:46;;;;;;;10.00;5.07;;;;;;;;;;5013946;28;20081;-55
2023/03/24 05:42:13;;;;;;;8.43;5.18;;;;;;;;;;5014186;28;20049;-56
2023/03/24 05:44:40;;;;;;;9.07;5.53;;;;;;;;;;5014180;28;20054;-53
2023/03/24 05:47:06;;;;;;;9.15;5.97;;;;;;;;;;5034495;22;20049;-78
2023/03/24 05:49:33;;;;;;;8.65;5.50;;;;;;;;;;5002776;28;20129;-79
2023/03/24 05:52:01;;;;;;;7.93;4.70;;;;;;;;;;5005579;28;20050;-79
2023/03/24 05:54:28;;;;;;;7.38;4.43;;;;;;;;;;5001483;28;20053;-78
2023/03/24 05:56:55;;;;;;;6.57;4.50;;;;;;;;;;5005999;28;20468;-79
2023/03/24 05:59:21;;;;;;;7.38;3.88;;;;;;;;;;5006293;28;20559;-80
2023/03/24 06:01:48;;;;;;;7.32;4.07;;;;;;;;;;5004161;28;20129;-78
2023/03/24 06:04:15;;;;;;;8.98;4.47;;;;;;;;;;5005029;28;20070;-80
2023/03/24 06:06:44;;;;;;;7.82;4.63;;;;;;;;;;5004476;28;20077;-78
2023/03/24 06:09:13;;;;;;;7.82;4.18;;;;;;;;;;5001688;28;20042;-80
2023/03/24 06:11:40;;;;;;;8.07;4.50;;;;;;;;;;5006604;28;20461;-80
2023/03/24 06:14:07;;;;;;;6.15;3.58;;;;;;;;;;5005807;28;20046;-80
2023/03/24 06:16:38;;;;;;;6.93;4.18;;;;;;;;;;5003716;28;20125;-80
2023/03/24 06:19:05;;;;;;;;;;;;;;;;;;5006228;28;20046;-80
2023/03/24 06:21:32;;;;;;;11.77;7.10;;;;;;;;;;5007656;28;19921;-80
2023/03/24 06:23:59;;;;;;;10.68;6.20;;;;;;;;;;5005057;28;20133;-78
2023/03/24 06:26:29;;;;;;;8.50;5.00;;;;;;;;;;5006863;28;20104;-80
2023/03/24 06:28:56;;;;;;;10.57;5.45;;;;;;;;;;5005774;28;20073;-80
2023/03/24 06:31:23;;;;;;;9.27;6.07;;;;;;;;;;5009253;28;20057;-79
2023/03/24 06:33:51;;;;;;;9.20;5.07;;;;;;;;;;5008785;28;20062;-80
2023/03/24 06:36:18;;;;;;;8.30;5.47;;;;;;;;;;5009742;28;20051;-79
2023/03/24 06:38:45;;;;;;;10.75;5.22;;;;;;;;;;5007298;28;20061;-79
2023/03/24 06:41:13;;;;;;;8.93;6.22;;;;;;;;;;5004977;28;20042;-81
2023/03/24 06:43:41;;;;;;;10.98;5.65;;;;;;;;;;5002235;28;20070;-78
2023/03/24 06:46:08;;;;;;;9.93;5.88;;;;;;;;;;5003111;28;20080;-78
2023/03/24 06:48:35;;;;;;;8.07;5.22;;;;;;;;;;5004094;28;20555;-79
2023/03/24 06:51:04;;;;;;;8.15;5.60;;;;;;;;;;5008578;28;20050;-80
2023/03/24 06:53:31;;;;;;;9.75;6.00;;;;;;;;;;5019588;28;20045;-78
2023/03/24 06:55:58;;;;;;;8.15;5.68;;;;;;;;;;5011375;28;20080;-80
2023/03/24 06:58:24;;;;;;;8.25;5.72;;;;;;;;;;5004736;28;20493;-79
2023/03/24 07:00:54;;;;;;;8.80;5.63;;;;;;;;;;5003883;28;20126;-79
2023/03/24 07:03:22;;;;;;;9.98;5.70;;;;;;;;;;5004339;28;20472;-80
2023/03/24 07:05:49;;;;;;;8.90;5.63;;;;;;;;;;5009919;28;20050;-80
2023/03/24 07:08:16;;;;;;;9.50;6.03;;;;;;;;;;5008117;28;20541;-80
2023/03/24 07:10:43;;;;;;;10.75;6.20;;;;;;;;;;4998951;28;20046;-80
2023/03/24 07:13:10;;;;;;;9.93;5.97;;;;;;;;;;5013573;28;20081;-79
2023/03/24 07:15:37;;;;;;;13.45;6.78;;;;;;;;;;5018721;28;20042;-77
2023/03/24 07:18:05;;;;;;;11.35;6.20;;;;;;;;;;5008074;28;20508;-80
2023/03/24 07:20:33;;;;;;;11.73;6.38;;;;;;;;;;5021146;28;20046;-80
2023/03/24 07:23:03;;;;;;;10.13;7.00;;;;;;;;;;5018142;28;20505;-80
2023/03/24 07:25:29;;;;;;;10.95;6.53;;;;;;;;;;5022255;28;20077;-80
2023/03/24 07:27:57;;;;;;;11.60;7.25;;;;;;;;;;5019827;28;20085;-79
2023/03/24 07:30:24;;;;;;;10.82;6.90;;;;;;;;;;5016613;28;20089;-79
2023/03/24 07:32:53;;;;;;;10.60;7.43;;;;;;;;;;5016317;28;20089;-79
2023/03/24 07:35:21;;;;;;;14.57;10.00;;;;;;;;;;5005666;28;20053;-79
2023/03/24 07:37:49;;;;;;;16.20;10.63;;;;;;;;;;5005565;28;20084;-79
2023/03/24 07:40:16;;;;;;;17.65;10.95;;;;;;;;;;5001236;28;20508;-79
2023/03/24 07:42:43;;;;;;;14.98;10.10;;;;;;;;;;4998259;28;20125;-80
2023/03/24 07:45:12;;;;;;;18.20;9.93;;;;;;;;;;4998439;28;20501;-80
2023/03/24 07:47:39;;;;;;;14.77;8.95;;;;;;;;;;4997026;28;20085;-80
2023/03/24 07:50:09;;;;;;;13.05;8.23;;;;;;;;;;5002374;28;20449;-78
2023/03/24 07:52:37;;;;;;;13.50;8.98;;;;;;;;;;4998802;28;20537;-79
2023/03/24 07:55:05;;;;;;;12.30;7.90;;;;;;;;;;4996803;28;20086;-79
2023/03/24 07:57:34;;;;;;;13.77;8.20;;;;;;;;;;4997664;28;20050;-79
2023/03/24 08:00:00;;;;;;;11.85;7.78;;;;;;;;;;4998751;28;20046;-79
2023/03/24 08:02:45;;;;;;;12.05;7.20;;;;;;;;;;5017358;28;20603;-78
2023/03/24 08:05:13;;;;;;;10.85;7.05;;;;;;;;;;5018643;28;20050;-79
2023/03/24 08:07:42;;;;;;;9.18;5.90;;;;;;;;;;5008886;28;20578;-78
2023/03/24 08:10:09;;;;;;;9.85;5.90;;;;;;;;;;4995637;28;20057;-77
2023/03/24 08:12:38;;;;;;;9.68;5.45;;;;;;;;;;4994760;28;20085;-78
2023/03/24 08:15:08;;;;;;;8.77;5.80;;;;;;;;;;4996169;28;20085;-79
2023/03/24 08:17:35;;;;;;;9.82;6.10;;;;;;;;;;5013466;28;20077;-78
2023/03/24 08:20:11;;;;;;;12.65;6.32;;;;;;;;;;5009753;28;20030;-78
2023/03/24 08:22:39;;;;;;;12.10;5.72;;;;;;;;;;5002757;28;20042;-78
2023/03/24 08:25:09;;;;;;;7.22;4.65;;;;;;;;;;5018042;28;20050;-80
2023/03/24 08:27:36;;;;;;;9.30;4.97;;;;;;;;;;5017200;28;20420;-80
2023/03/24 08:30:04;;;;;;;8.18;5.53;;;;;;;;;;5018751;28;20128;-80
2023/03/24 08:32:30;;;;;;;8.35;5.30;;;;;;;;;;5004911;28;20050;-79
2023/03/24 08:34:57;;;;;;;8.55;5.10;;;;;;;;;;5008917;28;20082;-78
2023/03/24 08:37:24;;;;;;;8.43;5.03;;;;;;;;;;5018038;28;20045;-80
2023/03/24 08:39:51;;;;;;;8.32;5.28;;;;;;;;;;5017208;28;20475;-78
2023/03/24 08:42:19;;;;;;;8.02;5.05;;;;;;;;;;5004698;28;20054;-79
2023/03/24 08:44:45;;;;;;;9.10;5.03;;;;;;;;;;4996059;28;20050;-79
2023/03/24 08:47:12;;;;;;;8.00;4.93;;;;;;;;;;4997122;28;20043;-83
2023/03/24 08:49:39;;;;;;;7.75;5.28;;;;;;;;;;5000041;28;20409;-82
2023/03/24 08:52:07;;;;;;;7.07;4.63;;;;;;;;;;5001374;28;20054;-84
2023/03/24 08:54:33;;;;;;;7.63;4.47;;;;;;;;;;4998677;28;20054;-84
2023/03/24 08:57:00;;;;;;;9.07;4.97;;;;;;;;;;5013549;28;20073;-84
2023/03/24 08:59:28;;;;;;;10.00;5.50;;;;;;;;;;5019686;28;20084;-82
2023/03/24 09:01:55;;;;;;;9.05;5.68;;;;;;;;;;5011086;28;20105;-79
2023/03/24 09:04:22;;;;;;;7.80;5.40;;;;;;;;;;5015851;28;20049;-79
2023/03/24 09:06:48;;;;;;;9.60;5.70;;;;;;;;;;5012272;28;20080;-79
2023/03/24 09:09:15;;;;;;;10.07;5.40;;;;;;;;;;5008636;28;20085;-79
2023/03/24 09:11:42;;;;;;;8.30;5.10;;;;;;;;;;5014402;28;20468;-78
2023/03/24 09:14:09;;;;;;;6.55;4.93;;;;;;;;;;5013688;28;20124;-78
2023/03/24 09:16:37;;;;;;;8.23;4.88;;;;;;;;;;5015336;28;20074;-79
2023/03/24 09:19:04;;;;;;;7.78;4.90;;;;;;;;;;5014899;28;20174;-79
2023/03/24 09:21:30;;;;;;;7.68;5.18;;;;;;;;;;5015727;28;20042;-80
2023/03/24 09:23:57;;;;;;;8.05;5.63;;;;;;;;;;5025257;28;20044;-80
2023/03/24 09:26:23;;;;;;;7.53;4.65;;;;;;;;;;5022053;28;20061;-79
2023/03/24 09:28:50;;;;;;;8.10;4.68;;;;;;;;;;5019547;28;20080;-79
2023/03/24 09:31:17;;;;;;;7.35;4.47;;;;;;;;;;5019136;28;20056;-79
2023/03/24 09:33:45;;;;;;;6.38;3.83;;;;;;;;;;5022716;28;20049;-79
2023/03/24 09:36:12;;;;;;;5.68;3.50;;;;;;;;;;5019438;28;20432;-79
2023/03/24 09:38:39;;;;;;;8.35;4.25;;;;;;;;;;5012479;28;20066;-78
2023/03/24 09:41:16;;;;;;;5.45;3.45;;;;;;;;;;5013323;28;20082;-79
2023/03/24 09:43:47;;;;;;;7.15;3.72;;;;;;;;;;5014106;28;20075;-79
2023/03/24 09:46:15;;;;;;;;;;;;;;;;;;5017733;28;20065;-79
2023/03/24 09:48:48;;;;;;;5.88;3.22;;;;;;;;;;5028939;28;19922;-79
2023/03/24 09:51:22;;;;;;;6.47;3.53;;;;;;;;;;5019300;28;20674;-79
2023/03/24 09:53:58;;;;;;;8.88;4.47;;;;;;;;;;5009657;28;20050;-79
2023/03/24 09:56:28;;;;;;;7.57;3.45;;;;;;;;;;5014293;28;20037;-79
2023/03/24 09:59:03;;;;;;;5.13;3.03;;;;;;;;;;5014218;28;20112;-77
2023/03/24 10:01:31;;;;;;;5.97;3.53;;;;;;;;;;5016770;28;20042;-77
2023/03/24 10:03:59;;;;;;;8.68;4.05;;;;;;;;;;5019233;28;20050;-78
2023/03/24 10:06:30;;;;;;;6.90;4.10;;;;;;;;;;5019720;28;20073;-78
2023/03/24 10:09:12;;;;;;;8.38;4.40;;;;;;;;;;5018602;28;20050;-78
2023/03/24 10:11:46;;;;;;;7.70;3.72;;;;;;;;;;5018423;28;20720;-78
2023/03/24 10:14:25;;;;;;;8.35;4.57;;;;;;;;;;5016848;28;20076;-78
2023/03/24 10:17:00;;;;;;;8.48;4.18;;;;;;;;;;5016218;28;20081;-78
2023/03/24 10:19:38;;;;;;;6.95;4.53;;;;;;;;;;5018304;28;20074;-78
2023/03/24 10:22:12;;;;;;;8.45;4.30;;;;;;;;;;5018065;28;20088;-79
2023/03/24 10:24:46;;;;;;;8.35;4.75;;;;;;;;;;5019360;28;20058;-79
2023/03/24 10:27:19;;;;;;;7.70;5.28;;;;;;;;;;5018196;28;20060;-79
2023/03/24 10:29:48;;;;;;;8.25;4.65;;;;;;;;;;5017104;28;20639;-79
2023/03/24 10:32:20;;;;;;;8.55;4.30;;;;;;;;;;5013198;28;20489;-78
2023/03/24 10:34:53;;;;;;;10.02;4.85;;;;;;;;;;5012394;28;20077;-79
2023/03/24 10:37:20;;;;;;;9.52;5.35;;;;;;;;;;5012833;28;20050;-79
2023/03/24 10:39:49;;;;;;;7.25;4.53;;;;;;;;;;5013060;28;20115;-79
2023/03/24 10:42:24;;;;;;;7.15;4.13;;;;;;;;;;5013091;28;20042;-79
2023/03/24 10:44:52;;;;;;;7.20;4.20;;;;;;;;;;5013957;28;20054;-79
2023/03/24 10:47:24;;;;;;;8.50;4.32;;;;;;;;;;5012931;28;20077;-79
2023/03/24 10:49:59;;;;;;;7.15;4.53;;;;;;;;;;5013245;28;20046;-78
2023/03/24 10:52:26;;;;;;;7.80;4.15;;;;;;;;;;5013379;28;20065;-79
2023/03/24 10:54:58;;;;;;;7.15;4.45;;;;;;;;;;5010664;28;20065;-79
2023/03/24 10:57:27;;;;;;;7.07;4.68;;;;;;;;;;5010035;28;20047;-80
2023/03/24 10:59:56;;;;;;;6.88;4.30;;;;;;;;;;5009424;28;20057;-81
2023/03/24 11:02:25;;;;;;;7.00;3.60;;;;;;;;;;5010410;28;20062;-81
2023/03/24 11:04:57;;;;;;;6.53;3.35;;;;;;;;;;5018458;28;20210;-81
2023/03/24 11:07:30;;;;;;;7.75;4.13;;;;;;;;;;5012912;28;20050;-81
2023/03/24 11:10:00;;;;;;;6.20;3.15;;;;;;;;;;5005635;28;20076;-78
2023/03/24 11:12:29;;;;;;;5.15;2.83;;;;;;;;;;5006704;28;20470;-79
2023/03/24 11:15:03;;;;;;;4.68;2.80;;;;;;;;;;5014504;28;20124;-78
2023/03/24 11:17:31;;;;;;;5.45;2.53;;;;;;;;;;5016603;28;20046;-80
2023/03/24 11:19:59;;;;;;;4.85;2.60;;;;;;;;;;5013181;28;20114;-82
2023/03/24 11:22:26;;;;;;;5.30;2.90;;;;;;;;;;5010060;28;20073;-80
2023/03/24 11:24:56;;;;;;;5.75;2.72;;;;;;;;;;5012302;28;20400;-78
2023/03/24 11:27:23;;;;;;;4.50;2.53;;;;;;;;;;5016041;28;20080;-79
2023/03/24 11:29:54;;;;;;;5.47;2.70;;;;;;;;;;5009808;28;20042;-78
2023/03/24 11:32:25;;;;;;;5.93;2.88;;;;;;;;;;5007578;28;20049;-79
2023/03/24 11:35:02;;;;;;;6.97;3.80;;;;;;;;;;5010142;28;20050;-78
2023/03/24 11:37:33;;;;;;;7.53;3.55;;;;;;;;;;5012095;28;20054;-78
2023/03/24 11:40:24;;;;;;;7.25;2.95;;;;;;;;;;5009121;28;20060;-79
2023/03/24 11:42:54;;;;;;;5.82;3.25;;;;;;;;;;5011115;28;20052;-79
2023/03/24 11:45:28;;;;;;;6.47;2.95;;;;;;;;;;5010121;28;20045;-78
2023/03/24 11:47:58;;;;;;;6.28;3.70;;;;;;;;;;5014309;28;20434;-79
2023/03/24 11:50:30;;;;;;;6.15;3.38;;;;;;;;;;5014388;28;20076;-79
2023/03/24 11:53:04;;;;;;;6.07;3.20;;;;;;;;;;5013952;28;20180;-77
2023/03/24 11:55:42;;;;;;;7.75;3.53;;;;;;;;;;5011537;28;20041;-78
2023/03/24 11:58:16;;;;;;;6.72;3.03;;;;;;;;;;5010114;28;20050;-78
2023/03/24 12:00:48;;;;;;;6.53;3.13;;;;;;;;;;5001138;28;20042;-78
2023/03/24 12:03:51;;;;;;;6.63;3.67;;;;;;;;;;5005222;28;20045;-81
2023/03/24 12:06:32;;;;;;;5.68;3.10;;;;;;;;;;5014662;28;20049;-84
2023/03/24 12:09:09;;;;;;;7.05;3.42;;;;;;;;;;5010384;28;20049;-79
2023/03/24 12:11:53;;;;;;;6.65;3.70;;;;;;;;;;5005120;28;20058;-80
2023/03/24 12:14:39;;;;;;;6.10;3.03;;;;;;;;;;5001830;28;20116;-79
2023/03/24 12:17:13;;;;;;;5.30;2.65;;;;;;;;;;5010169;28;20078;-79
2023/03/24 12:20:14;;;;;;;4.15;2.53;;;;;;;;;;5010069;28;20049;-81
2023/03/24 12:22:51;;;;;;;5.68;2.63;;;;;;;;;;5002140;28;20088;-79
2023/03/24 12:25:30;;;;;;;6.30;2.67;;;;;;;;;;5016177;28;20133;-80
2023/03/24 12:28:13;;;;;;;5.40;2.90;;;;;;;;;;5006822;28;20038;-81
2023/03/24 12:30:48;;;;;;;5.28;2.70;;;;;;;;;;5016972;28;20072;-79
2023/03/24 12:33:32;;;;;;;5.05;2.33;;;;;;;;;;5013520;28;20077;-80
2023/03/24 12:36:16;;;;;;;4.80;2.25;;;;;;;;;;5015078;28;20050;-79
2023/03/24 12:39:00;;;;;;;5.78;3.20;;;;;;;;;;5016353;28;20160;-80
2023/03/24 12:41:55;;;;;;;4.88;2.58;;;;;;;;;;5007512;28;20106;-78
2023/03/24 12:44:36;;;;;;;3.90;2.20;;;;;;;;;;5029155;28;20041;-79
2023/03/24 12:47:12;;;;;;;4.20;2.33;;;;;;;;;;5013774;28;20137;-79
2023/03/24 12:49:53;;;;;;;5.38;1.90;;;;;;;;;;5012764;28;20046;-80
2023/03/24 12:52:42;;;;;;;4.15;2.20;;;;;;;;;;4998575;28;20046;-79
2023/03/24 12:55:16;;;;;;;4.13;2.13;;;;;;;;;;5009369;28;20038;-80
2023/03/24 12:57:48;;;;;;;3.92;1.80;;;;;;;;;;5011445;28;20096;-78
2023/03/24 13:00:21;;;;;;;3.30;1.67;;;;;;;;;;5011095;28;20078;-79
2023/03/24 13:02:53;;;;;;;4.60;2.10;;;;;;;;;;5014557;28;20136;-79
2023/03/24 13:05:26;;;;;;;4.53;2.00;;;;;;;;;;5003151;28;20062;-79
2023/03/24 13:07:57;;;;;;;3.85;1.77;;;;;;;;;;5015021;28;20125;-79
2023/03/24 13:10:28;;;;;;;4.03;2.33;;;;;;;;;;5014685;28;20092;-79
2023/03/24 13:12:59;;;;;;;4.10;2.40;;;;;;;;;;5012459;28;20088;-79
2023/03/24 13:15:31;;;;;;;3.72;2.22;;;;;;;;;;5004452;28;20137;-78
2023/03/24 13:18:04;;;;;;;4.50;2.10;;;;;;;;;;5011394;28;20052;-78
2023/03/24 13:20:37;;;;;;;3.90;1.88;;;;;;;;;;5011002;28;20057;-78
2023/03/24 13:23:17;;;;;;;3.10;1.55;;;;;;;;;;5006853;28;20140;-79
2023/03/24 13:25:48;;;;;;;;;;;;;;;;;;5010014;28;20065;-79
2023/03/24 13:28:21;;;;;;;4.18;1.40;;;;;;;;;;5017402;28;20430;-79
2023/03/24 13:30:48;;;;;;;2.22;1.10;;;;;;;;;;5011157;28;20039;-79
2023/03/24 13:33:18;;;;;;;2.70;1.48;;;;;;;;;;5014191;28;20073;-79
2023/03/24 13:36:08;;;;;;;3.03;1.40;;;;;;;;;;5013356;28;20050;-78
2023/03/24 13:38:38;;;;;;;4.27;1.40;;;;;;;;;;5012727;28;20058;-79
2023/03/24 13:41:11;;;;;;;3.10;1.70;;;;;;;;;;5013810;28;20057;-79
2023/03/24 13:43:47;;;;;;;3.97;1.80;;;;;;;;;;5011607;28;20505;-79
2023/03/24 13:46:14;;;;;;;3.65;1.60;;;;;;;;;;5009777;28;20618;-78
2023/03/24 13:48:45;;;;;;;3.47;1.77;;;;;;;;;;5013285;28;20069;-79
2023/03/24 13:51:17;;;;;;;4.22;1.40;;;;;;;;;;5013839;28;20052;-79
2023/03/24 13:53:49;;;;;;;3.33;1.60;;;;;;;;;;5006370;28;20536;-78
2023/03/24 13:56:26;;;;;;;4.20;1.55;;;;;;;;;;5013331;28;20042;-79
2023/03/24 13:59:27;;;;;;;5.88;1.70;;;;;;;;;;5013164;28;20529;-79
2023/03/24 14:02:22;;;;;;;3.83;1.85;;;;;;;;;;5031698;22;20050;-77
2023/03/24 14:04:50;;;;;;;2.25;1.33;;;;;;;;;;5011516;28;20103;-77
2023/03/24 14:07:43;;;;;;;4.07;1.90;;;;;;;;;;5014030;28;20046;-76
2023/03/24 14:10:30;;;;;;;3.75;1.85;;;;;;;;;;5012714;28;20074;-78
2023/03/24 14:13:05;;;;;;;5.00;1.65;;;;;;;;;;5008784;28;20050;-78
2023/03/24 14:15:33;;;;;;;3.13;1.48;;;;;;;;;;5006834;28;20133;-77
2023/03/24 14:18:16;;;;;;;2.55;1.20;;;;;;;;;;5012235;28;20100;-78
2023/03/24 14:20:59;;;;;;;2.47;1.13;;;;;;;;;;5002445;28;20227;-80
2023/03/24 14:23:34;;;;;;;2.90;1.40;;;;;;;;;;5003674;28;20069;-81
2023/03/24 14:26:01;;;;;;;4.22;1.40;;;;;;;;;;5013516;28;20073;-76
2023/03/24 14:28:33;;;;;;;4.55;2.17;;;;;;;;;;5014260;28;20096;-79
2023/03/24 14:31:08;;;;;;;2.20;1.00;;;;;;;;;;5009550;28;20085;-79
2023/03/24 14:33:35;;;;;;;4.25;1.65;;;;;;;;;;5012519;28;20089;-76
2023/03/24 14:36:05;;;;;;;3.50;1.45;;;;;;;;;;5011885;28;20566;-77
2023/03/24 14:38:37;;;;;;;3.80;1.55;;;;;;;;;;5011958;28;20431;-77
2023/03/24 14:41:08;;;;;;;3.55;1.33;;;;;;;;;;5011937;28;20038;-76
2023/03/24 14:44:04;;;;;;;4.80;2.20;;;;;;;;;;5010147;28;20084;-78
2023/03/24 14:46:37;;;;;;;4.97;1.52;;;;;;;;;;4988024;28;20046;-79
2023/03/24 14:49:08;;;;;;;4.75;1.55;;;;;;;;;;5011499;28;20050;-77
2023/03/24 14:51:40;;;;;;;4.05;1.60;;;;;;;;;;5009448;28;20073;-77
2023/03/24 14:54:15;;;;;;;3.67;1.52;;;;;;;;;;5014129;28;20149;-77
2023/03/24 14:56:45;;;;;;;1.95;1.08;;;;;;;;;;5018014;28;20405;-76
2023/03/24 14:59:26;;;;;;;3.65;1.52;;;;;;;;;;5015821;28;20049;-77
2023/03/24 15:02:01;;;;;;;3.33;1.35;;;;;;;;;;5011629;28;20046;-77
2023/03/24 15:04:27;;;;;;;4.03;1.58;;;;;;;;;;5011929;28;20084;-77
2023/03/24 15:06:54;;;;;;;3.53;1.42;;;;;;;;;;5011759;28;20125;-77
2023/03/24 15:09:21;;;;;;;4.53;1.50;;;;;;;;;;5011141;28;20596;-78
2023/03/24 15:11:48;;;;;;;3.75;1.65;;;;;;;;;;5011578;28;20049;-79